CheckWX is a tool to help pilots better visualize weather data.  It is not intended as a substitute for an official pre-flight weather briefing.

18:04:41 UTC

KFZG METAR
Fitzgerald Municipal Airport
Fitzgerald, Georgia, USA
Current

30 mins ago

KFZG 241735Z AUTO 24004KT 10SM CLR 29/13 A3005 RMK AO2 T02940126 PWINO
Observed
Apr-24 @ 17:35 UTC
Wind
  • 240° at 4 KTS
Visibility
10 SM
Flight Rules
VFR
Cloud Levels
  • Clear skies
Temperature
29°C / 84°F
Dewpoint
13°C / 55°F
Humidity
37%
Altimeter
30.05" Hg
Pressure
1017.62 hPa
Previous

50 mins ago

KFZG 241715Z AUTO 29007KT 10SM CLR 29/12 A3006 RMK AO2 T02940123 PWINO
Observed
Apr-24 @ 17:15 UTC
Wind
  • 290° at 7 KTS
Visibility
10 SM
Flight Rules
VFR
Cloud Levels
  • Clear skies
Temperature
29°C / 84°F
Dewpoint
12°C / 54°F
Humidity
35%
Altimeter
30.06" Hg
Pressure
1017.92 hPa
Previous

1 hour ago

KFZG 241655Z AUTO 24003KT 10SM CLR 29/13 A3007 RMK AO2 T02860128 PWINO
Observed
Apr-24 @ 16:55 UTC
Wind
  • 240° at 3 KTS
Visibility
10 SM
Flight Rules
VFR
Cloud Levels
  • Clear skies
Temperature
29°C / 84°F
Dewpoint
13°C / 55°F
Humidity
37%
Altimeter
30.07" Hg
Pressure
1018.32 hPa